Time;durP1;ratioP1;P1;durP2;ratioP2;P2;SDS_P1;SDS_P2;PMS_P1;PMS_P2;Temp;Humidity;BMP_temperature;BMP_pressure;BME280_temperature;BME280_humidity;BME280_pressure;Samples;Min_cycle;Max_cycle;Signal;HPM_P1;HPM_P2
2021/07/29 00:00:14;;;;;;;11.82;4.10;;;19.90;99.90;;;;;;4258657;27;20064;-60
2021/07/29 00:02:15;;;;;;;8.75;3.63;;;19.90;99.90;;;;;;4257379;27;20103;-60
2021/07/29 00:04:17;;;;;;;9.15;4.03;;;19.90;99.90;;;;;;4256949;27;20055;-60
2021/07/29 00:06:18;;;;;;;8.48;3.80;;;19.90;99.90;;;;;;4257861;27;20079;-59
2021/07/29 00:08:20;;;;;;;8.18;3.72;;;19.90;99.90;;;;;;4257686;27;20092;-60
2021/07/29 00:10:22;;;;;;;17.75;4.88;;;19.90;99.90;;;;;;4258146;27;20087;-60
2021/07/29 00:12:23;;;;;;;12.98;3.90;;;19.90;99.90;;;;;;4256152;27;20042;-60
2021/07/29 00:14:24;;;;;;;5.35;2.92;;;19.80;99.90;;;;;;4257695;27;20034;-60
2021/07/29 00:16:32;;;;;;;8.95;3.75;;;19.80;99.90;;;;;;4257487;27;20076;-59
2021/07/29 00:20:52;;;;;;;13.98;5.20;;;19.70;99.90;;;;;;4242259;27;20039;-60
2021/07/29 00:22:59;;;;;;;10.63;4.72;;;19.60;99.90;;;;;;4257648;27;20082;-59
2021/07/29 00:25:00;;;;;;;15.90;5.47;;;19.50;99.90;;;;;;4248623;27;21062;-60
2021/07/29 00:27:02;;;;;;;8.60;4.45;;;19.50;99.90;;;;;;4241489;27;20023;-59
2021/07/29 00:29:03;;;;;;;8.32;4.40;;;19.50;99.90;;;;;;4240295;27;20818;-60
2021/07/29 00:31:04;;;;;;;12.93;5.15;;;19.40;99.90;;;;;;4241740;27;20027;-60
2021/07/29 00:33:05;;;;;;;14.15;4.47;;;19.40;99.90;;;;;;4249157;27;20051;-60
2021/07/29 00:35:08;;;;;;;11.45;3.97;;;19.30;99.90;;;;;;4258403;27;20022;-60
2021/07/29 00:37:10;;;;;;;13.90;5.53;;;19.30;99.90;;;;;;4256066;27;20046;-59
2021/07/29 00:39:11;;;;;;;9.55;4.38;;;19.30;99.90;;;;;;4258500;27;20713;-59
2021/07/29 00:41:13;;;;;;;11.52;3.63;;;19.20;99.90;;;;;;4256357;27;20556;-60
2021/07/29 00:43:16;;;;;;;14.70;4.85;;;19.20;99.90;;;;;;4247489;27;20085;-60
2021/07/29 00:45:17;;;;;;;9.60;4.10;;;19.20;99.90;;;;;;4239923;27;20027;-59
2021/07/29 00:47:19;;;;;;;8.80;4.00;;;19.10;99.90;;;;;;4240836;27;20427;-60
2021/07/29 00:49:20;;;;;;;10.85;4.53;;;19.10;99.90;;;;;;4239707;28;20368;-60
2021/07/29 00:51:22;;;;;;;14.38;4.10;;;19.10;99.90;;;;;;4239611;27;20047;-60
2021/07/29 00:53:24;;;;;;;13.60;4.55;;;19.10;99.90;;;;;;4239977;28;20039;-61
2021/07/29 00:55:25;;;;;;;9.80;4.55;;;19.10;99.90;;;;;;4239926;27;20039;-60
2021/07/29 00:57:26;;;;;;;10.18;4.55;;;19.00;99.90;;;;;;4241934;27;20081;-59
2021/07/29 00:59:27;;;;;;;9.80;4.80;;;19.00;99.90;;;;;;4239298;28;20051;-59
2021/07/29 01:01:28;;;;;;;8.07;3.90;;;19.00;99.90;;;;;;4240812;28;20035;-59
2021/07/29 01:03:29;;;;;;;11.88;4.32;;;19.00;99.90;;;;;;4239481;28;20024;-59
2021/07/29 01:05:31;;;;;;;10.13;4.88;;;19.00;99.90;;;;;;4240485;28;20494;-60
2021/07/29 01:07:32;;;;;;;10.38;4.70;;;18.90;99.90;;;;;;4239707;28;20428;-60
2021/07/29 01:09:33;;;;;;;11.32;5.18;;;18.90;99.90;;;;;;4241091;28;20027;-59
2021/07/29 01:11:35;;;;;;;10.80;4.30;;;18.90;99.90;;;;;;4239548;28;20092;-60
2021/07/29 01:13:36;;;;;;;8.50;4.38;;;18.90;99.90;;;;;;4240987;28;20076;-60
2021/07/29 01:15:37;;;;;;;11.38;4.53;;;18.90;99.90;;;;;;4239104;28;20490;-59
2021/07/29 01:17:38;;;;;;;10.82;4.47;;;18.80;99.90;;;;;;4240883;28;20023;-59
2021/07/29 01:19:39;;;;;;;8.65;4.78;;;18.80;99.90;;;;;;4239472;28;20039;-59
2021/07/29 01:21:40;;;;;;;8.95;4.63;;;18.80;99.90;;;;;;4240215;28;20027;-59
2021/07/29 01:23:41;;;;;;;13.65;4.70;;;18.80;99.90;;;;;;4254451;27;20034;-59
2021/07/29 01:25:42;;;;;;;10.95;4.53;;;18.80;99.90;;;;;;4256219;27;20119;-59
2021/07/29 01:27:44;;;;;;;11.30;4.95;;;18.80;99.90;;;;;;4258223;27;20072;-59
2021/07/29 01:29:46;;;;;;;11.48;4.38;;;18.70;99.90;;;;;;4255963;27;20034;-59
2021/07/29 01:31:47;;;;;;;12.45;4.70;;;18.70;99.90;;;;;;4257378;27;20047;-58
2021/07/29 01:33:50;;;;;;;11.88;4.80;;;18.70;99.90;;;;;;4256262;27;20039;-60
2021/07/29 01:35:51;;;;;;;11.70;5.03;;;18.70;99.90;;;;;;4257984;27;20367;-59
2021/07/29 01:37:52;;;;;;;11.40;4.88;;;18.70;99.90;;;;;;4256573;27;20043;-59
2021/07/29 01:39:53;;;;;;;14.45;5.85;;;18.70;99.90;;;;;;4257735;27;20087;-60
2021/07/29 01:41:54;;;;;;;11.38;5.20;;;18.70;99.90;;;;;;4247462;27;20039;-59
2021/07/29 01:43:55;;;;;;;9.55;5.20;;;18.70;99.90;;;;;;4240419;28;20088;-59
2021/07/29 01:45:58;;;;;;;10.55;5.15;;;18.70;99.90;;;;;;4239026;28;20069;-59
2021/07/29 01:47:59;;;;;;;11.13;4.28;;;18.70;99.90;;;;;;4240440;28;20031;-59
2021/07/29 01:50:00;;;;;;;15.32;5.30;;;18.70;99.90;;;;;;4239065;28;20027;-59
2021/07/29 01:52:01;;;;;;;12.50;5.40;;;18.70;99.90;;;;;;4240054;28;20039;-59
2021/07/29 01:54:02;;;;;;;10.75;4.55;;;18.70;99.90;;;;;;4239893;28;20094;-59
2021/07/29 01:56:08;;;;;;;14.07;5.38;;;18.70;99.90;;;;;;4240700;27;20039;-56
2021/07/29 01:58:09;;;;;;;11.32;5.05;;;18.70;99.90;;;;;;4243585;27;20043;-58
2021/07/29 02:00:11;;;;;;;8.00;4.63;;;18.70;99.90;;;;;;4243015;27;20024;-59
2021/07/29 02:02:12;;;;;;;8.40;4.65;;;18.70;99.90;;;;;;4261222;27;20023;-59
2021/07/29 02:04:13;;;;;;;11.75;5.82;;;18.70;99.90;;;;;;4259629;27;20083;-59
2021/07/29 02:06:14;;;;;;;8.13;4.80;;;18.70;99.90;;;;;;4259929;27;20722;-60
2021/07/29 02:08:16;;;;;;;12.00;5.72;;;18.70;99.90;;;;;;4240656;27;20484;-60
2021/07/29 02:10:17;;;;;;;10.98;5.43;;;18.70;99.90;;;;;;4259791;27;20034;-59
2021/07/29 02:12:18;;;;;;;11.05;5.28;;;18.60;99.90;;;;;;4255508;27;20523;-59
2021/07/29 02:14:21;;;;;;;13.23;5.60;;;18.50;99.90;;;;;;4242481;27;20039;-60
2021/07/29 02:16:22;;;;;;;11.55;5.55;;;18.50;99.90;;;;;;4242164;27;20019;-59
2021/07/29 02:18:23;;;;;;;12.35;5.82;;;18.50;99.90;;;;;;4243922;27;20027;-60
2021/07/29 02:20:25;;;;;;;12.90;5.10;;;18.40;99.90;;;;;;4242161;27;20023;-57
2021/07/29 02:22:26;;;;;;;7.82;5.43;;;18.40;99.90;;;;;;4242772;27;20060;-60
2021/07/29 02:24:27;;;;;;;9.23;5.32;;;18.50;99.90;;;;;;4242527;27;20151;-60
2021/07/29 02:26:28;;;;;;;12.88;5.38;;;18.60;99.90;;;;;;4242679;27;20061;-60
2021/07/29 02:28:30;;;;;;;12.63;5.30;;;18.60;99.90;;;;;;4242180;27;20031;-60
2021/07/29 02:30:31;;;;;;;12.02;5.25;;;18.60;99.90;;;;;;4241887;27;20027;-60
2021/07/29 02:32:32;;;;;;;12.30;6.13;;;18.60;99.90;;;;;;4242794;27;20912;-60
2021/07/29 02:34:33;;;;;;;10.07;5.50;;;18.70;99.90;;;;;;4241697;27;20035;-61
2021/07/29 02:36:34;;;;;;;14.50;5.15;;;18.80;99.90;;;;;;4242948;27;20087;-59
2021/07/29 02:38:35;;;;;;;9.32;5.13;;;18.80;99.90;;;;;;4241850;27;20027;-59
2021/07/29 02:40:36;;;;;;;10.48;5.38;;;18.80;99.90;;;;;;4242863;27;20035;-60
2021/07/29 02:42:37;;;;;;;10.27;5.90;;;18.80;99.90;;;;;;4241068;27;20440;-58
2021/07/29 02:44:39;;;;;;;11.82;5.90;;;18.80;99.90;;;;;;4242859;27;20092;-59
2021/07/29 02:46:40;;;;;;;9.95;5.65;;;18.90;99.90;;;;;;4241274;27;20043;-59
2021/07/29 02:48:41;;;;;;;8.57;5.10;;;18.90;99.90;;;;;;4242775;27;20471;-60
2021/07/29 02:50:43;;;;;;;9.38;5.63;;;18.90;99.90;;;;;;4240687;27;20092;-60
2021/07/29 02:52:44;;;;;;;10.77;5.10;;;18.90;99.90;;;;;;4242541;27;20519;-60
2021/07/29 02:54:45;;;;;;;14.13;6.03;;;19.00;99.90;;;;;;4241556;27;20039;-60
2021/07/29 02:56:47;;;;;;;11.50;6.30;;;19.00;99.90;;;;;;4241904;27;20027;-60
2021/07/29 02:58:48;;;;;;;11.13;6.85;;;19.00;99.90;;;;;;4242012;27;20043;-60
2021/07/29 03:00:49;;;;;;;11.48;6.05;;;19.00;99.90;;;;;;4241442;27;20035;-59
2021/07/29 03:02:50;;;;;;;12.82;5.95;;;18.90;99.90;;;;;;4243472;27;20035;-60
2021/07/29 03:04:51;;;;;;;15.45;6.90;;;18.90;99.90;;;;;;4241074;27;20429;-59
2021/07/29 03:06:53;;;;;;;10.52;6.10;;;18.90;99.90;;;;;;4242954;27;20085;-61
2021/07/29 03:08:55;;;;;;;12.55;5.85;;;18.90;99.90;;;;;;4241425;27;20035;-60
2021/07/29 03:10:58;;;;;;;9.20;5.45;;;18.80;99.90;;;;;;4242734;27;20031;-60
2021/07/29 03:13:01;;;;;;;9.95;5.25;;;18.80;99.90;;;;;;4241367;27;20115;-60
2021/07/29 03:15:02;;;;;;;12.27;5.80;;;18.80;99.90;;;;;;4242486;27;20471;-60
2021/07/29 03:17:04;;;;;;;13.75;6.85;;;18.80;99.90;;;;;;4240784;27;20561;-60
2021/07/29 03:19:05;;;;;;;12.50;5.43;;;18.80;99.90;;;;;;4242187;27;20039;-59
2021/07/29 03:21:07;;;;;;;7.60;5.50;;;18.70;99.90;;;;;;4243775;27;20087;-60
2021/07/29 03:23:08;;;;;;;9.15;4.90;;;18.70;99.90;;;;;;4259509;27;20083;-60
2021/07/29 03:25:09;;;;;;;9.15;5.50;;;18.60;99.90;;;;;;4258108;27;20503;-61
2021/07/29 03:27:11;;;;;;;16.35;5.57;;;18.70;99.90;;;;;;4258017;27;20075;-60
2021/07/29 03:29:13;;;;;;;14.77;5.32;;;18.70;99.90;;;;;;4258425;27;20031;-60
2021/07/29 03:31:14;;;;;;;14.45;5.88;;;18.70;99.90;;;;;;4256701;27;20059;-60
2021/07/29 03:33:15;;;;;;;14.82;6.07;;;18.80;99.90;;;;;;4258926;27;20022;-59
2021/07/29 03:35:17;;;;;;;14.20;5.53;;;18.80;99.90;;;;;;4257864;27;20022;-60
2021/07/29 03:37:18;;;;;;;12.82;5.85;;;18.80;99.90;;;;;;4259486;27;20030;-60
2021/07/29 03:39:19;;;;;;;17.38;6.72;;;18.70;99.90;;;;;;4257702;27;21275;-59
2021/07/29 03:41:20;;;;;;;12.40;5.78;;;18.80;99.90;;;;;;4259136;27;20095;-59
2021/07/29 03:43:21;;;;;;;14.45;7.38;;;18.80;99.90;;;;;;4257526;27;20843;-61
2021/07/29 03:45:22;;;;;;;11.82;6.68;;;18.90;99.90;;;;;;4258966;27;20071;-60
2021/07/29 03:47:24;;;;;;;12.82;6.43;;;18.90;99.90;;;;;;4257079;27;20093;-60
2021/07/29 03:49:25;;;;;;;18.42;7.55;;;18.90;99.90;;;;;;4258674;27;20039;-60
2021/07/29 03:51:26;;;;;;;14.63;7.20;;;18.90;99.90;;;;;;4257446;27;20616;-60
2021/07/29 03:53:27;;;;;;;14.02;7.13;;;18.80;99.90;;;;;;4257417;27;20038;-60
2021/07/29 03:55:28;;;;;;;18.05;7.32;;;18.80;99.90;;;;;;4256450;27;20075;-58
2021/07/29 03:57:29;;;;;;;12.98;6.75;;;18.80;99.90;;;;;;4241059;27;20035;-59
2021/07/29 03:59:30;;;;;;;8.85;6.18;;;18.80;99.90;;;;;;4239963;27;20159;-60
2021/07/29 04:01:31;;;;;;;18.23;7.25;;;18.90;99.90;;;;;;4254155;27;20395;-59
2021/07/29 04:03:32;;;;;;;15.95;6.40;;;19.10;99.90;;;;;;4257992;27;20042;-59
2021/07/29 04:05:34;;;;;;;18.77;6.50;;;19.20;99.90;;;;;;4251406;27;20115;-59
2021/07/29 04:07:36;;;;;;;11.13;7.35;;;19.30;99.90;;;;;;4257719;27;20035;-60
2021/07/29 04:09:37;;;;;;;14.48;6.45;;;19.50;99.90;;;;;;4257264;27;20022;-59
2021/07/29 04:11:38;;;;;;;15.55;5.70;;;19.60;99.90;;;;;;4256939;27;20082;-59
2021/07/29 04:13:39;;;;;;;13.63;6.18;;;19.70;99.90;;;;;;4239277;27;20035;-60
2021/07/29 04:15:41;;;;;;;11.25;5.78;;;19.80;99.90;;;;;;4241984;27;20553;-59
2021/07/29 04:17:42;;;;;;;10.48;6.00;;;19.80;99.90;;;;;;4238951;27;20451;-59
2021/07/29 04:19:44;;;;;;;9.32;5.90;;;19.80;99.90;;;;;;4239685;27;23352;-59
2021/07/29 04:21:45;;;;;;;10.80;5.35;;;19.80;99.90;;;;;;4250544;27;20031;-58
2021/07/29 04:23:46;;;;;;;16.52;6.50;;;19.80;99.90;;;;;;4244961;27;20088;-59
2021/07/29 04:25:47;;;;;;;8.55;5.55;;;19.80;99.90;;;;;;4238163;27;20368;-59
2021/07/29 04:27:48;;;;;;;15.50;6.10;;;19.70;99.90;;;;;;4239432;27;20043;-59
2021/07/29 04:29:51;;;;;;;11.02;5.40;;;19.80;99.90;;;;;;4237519;27;20035;-60
2021/07/29 04:31:53;;;;;;;17.55;5.80;;;19.70;99.90;;;;;;4239241;27;20119;-59
2021/07/29 04:33:54;;;;;;;11.32;6.13;;;19.70;99.90;;;;;;4238342;27;20036;-60
2021/07/29 04:35:55;;;;;;;13.43;6.22;;;19.60;99.90;;;;;;4238537;27;20043;-60
2021/07/29 04:37:57;;;;;;;9.95;5.22;;;19.50;99.90;;;;;;4238612;27;20808;-60
2021/07/29 04:39:58;;;;;;;11.20;5.53;;;19.50;99.90;;;;;;4237247;27;20107;-58
2021/07/29 04:41:59;;;;;;;11.60;5.45;;;19.70;99.90;;;;;;4239468;27;20047;-57
2021/07/29 04:44:00;;;;;;;12.68;5.43;;;19.70;99.90;;;;;;4250572;27;20440;-59
2021/07/29 04:46:03;;;;;;;12.93;5.90;;;19.80;99.90;;;;;;4250828;27;20027;-60
2021/07/29 04:48:04;;;;;;;10.15;5.13;;;19.80;99.90;;;;;;4237440;27;20043;-60
2021/07/29 04:50:05;;;;;;;13.60;5.70;;;19.90;99.90;;;;;;4237833;27;20091;-60
2021/07/29 04:52:07;;;;;;;10.52;6.00;;;20.00;99.90;;;;;;4248453;27;20502;-60
2021/07/29 04:54:08;;;;;;;14.60;5.72;;;20.10;99.90;;;;;;4218289;28;20047;-59
2021/07/29 04:56:09;;;;;;;10.63;5.82;;;20.20;99.90;;;;;;4244751;27;20056;-58
2021/07/29 04:58:10;;;;;;;13.48;5.57;;;20.30;99.90;;;;;;4245064;27;20091;-58
2021/07/29 05:00:13;;;;;;;9.60;6.35;;;20.40;99.90;;;;;;4253463;27;20051;-59
2021/07/29 05:02:17;;;;;;;11.40;5.85;;;20.40;99.90;;;;;;4239236;27;20039;-59
2021/07/29 05:04:18;;;;;;;12.82;5.72;;;20.50;99.90;;;;;;4238260;27;20142;-59
2021/07/29 05:06:19;;;;;;;17.55;6.25;;;20.70;99.90;;;;;;4237120;28;20757;-59
2021/07/29 05:08:21;;;;;;;11.00;5.60;;;20.80;99.90;;;;;;4238832;28;20035;-59
2021/07/29 05:10:22;;;;;;;13.27;5.68;;;21.20;99.90;;;;;;4237664;27;20112;-59
2021/07/29 05:12:23;;;;;;;9.50;5.65;;;21.70;99.90;;;;;;4239100;28;20035;-59
2021/07/29 05:14:24;;;;;;;11.65;5.38;;;22.10;99.90;;;;;;4238166;27;20140;-59
2021/07/29 05:16:25;;;;;;;14.55;5.20;;;22.60;99.90;;;;;;4239012;28;20103;-60
2021/07/29 05:18:27;;;;;;;14.40;5.40;;;22.50;99.90;;;;;;4238014;28;20553;-60
2021/07/29 05:20:28;;;;;;;12.20;4.90;;;21.90;99.90;;;;;;4238512;27;20046;-60
2021/07/29 05:22:29;;;;;;;16.23;5.40;;;21.50;99.90;;;;;;4237308;28;20091;-59
2021/07/29 05:24:30;;;;;;;12.80;5.95;;;21.10;99.90;;;;;;4238221;27;20088;-60
2021/07/29 05:26:31;;;;;;;11.30;5.28;;;20.90;99.90;;;;;;4237241;28;20035;-60
2021/07/29 05:28:32;;;;;;;13.88;5.95;;;20.70;99.90;;;;;;4239114;28;20103;-59
2021/07/29 05:30:37;;;;;;;21.58;6.45;;;20.70;99.90;;;;;;4237338;27;20088;-59
2021/07/29 05:32:38;;;;;;;12.20;5.43;;;20.70;99.90;;;;;;4241440;27;20104;-60
2021/07/29 05:34:39;;;;;;;16.67;5.38;;;20.90;99.90;;;;;;4240718;27;20047;-59
2021/07/29 05:36:40;;;;;;;11.18;5.95;;;21.20;99.90;;;;;;4241625;27;20023;-59
2021/07/29 05:38:41;;;;;;;15.23;6.72;;;21.50;99.90;;;;;;4242111;27;20023;-60
2021/07/29 05:40:42;;;;;;;8.27;4.97;;;21.80;99.90;;;;;;4241121;27;20043;-59
2021/07/29 05:42:43;;;;;;;11.88;5.07;;;22.00;99.90;;;;;;4242162;27;20035;-60
2021/07/29 05:44:45;;;;;;;15.65;5.07;;;22.30;99.90;;;;;;4241131;27;20100;-60
2021/07/29 05:46:46;;;;;;;13.57;5.50;;;22.60;99.90;;;;;;4241951;27;20031;-60
2021/07/29 05:48:47;;;;;;;16.30;5.30;;;23.20;99.90;;;;;;4241093;27;20043;-60
2021/07/29 05:50:48;;;;;;;14.73;5.95;;;23.70;99.90;;;;;;4241495;27;20559;-61
2021/07/29 05:52:49;;;;;;;15.02;5.57;;;24.20;99.90;;;;;;4239927;27;20122;-60
2021/07/29 05:54:50;;;;;;;13.30;5.28;;;24.10;99.90;;;;;;4242098;27;20051;-60
2021/07/29 05:56:51;;;;;;;17.67;5.03;;;23.80;99.90;;;;;;4238464;27;20035;-60
2021/07/29 05:58:52;;;;;;;13.13;5.60;;;23.70;99.90;;;;;;4250198;27;20092;-60
2021/07/29 06:00:54;;;;;;;15.07;5.50;;;24.00;99.90;;;;;;4239472;27;20073;-60
2021/07/29 06:02:57;;;;;;;14.20;5.78;;;24.30;99.90;;;;;;4242336;27;20745;-59
2021/07/29 06:04:58;;;;;;;12.90;5.25;;;24.50;99.90;;;;;;4240625;27;20474;-60
2021/07/29 06:06:59;;;;;;;8.75;4.45;;;24.40;99.90;;;;;;4240856;27;20027;-59
2021/07/29 06:09:00;;;;;;;17.77;6.38;;;23.90;99.90;;;;;;4240644;27;20111;-60
2021/07/29 06:11:03;;;;;;;16.08;5.80;;;24.00;99.90;;;;;;4240555;27;20027;-59
2021/07/29 06:13:04;;;;;;;15.77;5.18;;;24.30;99.90;;;;;;4241042;27;20561;-60
2021/07/29 06:15:07;;;;;;;12.77;5.15;;;24.30;99.90;;;;;;4238775;27;20035;-60
2021/07/29 06:17:08;;;;;;;14.07;5.25;;;24.50;99.90;;;;;;4241854;27;20080;-60
2021/07/29 06:19:15;;;;;;;13.77;5.55;;;24.40;99.90;;;;;;4240135;27;20032;-60
2021/07/29 06:21:16;;;;;;;14.60;5.93;;;24.50;99.90;;;;;;4241532;27;20015;-60
2021/07/29 06:23:17;;;;;;;15.45;5.35;;;24.50;99.90;;;;;;4240304;27;20031;-60
2021/07/29 06:25:21;;;;;;;10.60;5.47;;;24.60;99.90;;;;;;4241400;27;20092;-59
2021/07/29 06:27:24;;;;;;;17.60;5.22;;;24.70;99.90;;;;;;4240123;27;20043;-60
2021/07/29 06:29:25;;;;;;;16.45;5.22;;;25.00;99.90;;;;;;4240989;27;20103;-60
2021/07/29 06:31:26;;;;;;;17.92;6.05;;;25.10;99.90;;;;;;4240112;27;20088;-60
2021/07/29 06:33:27;;;;;;;13.38;5.22;;;25.10;99.90;;;;;;4241557;27;20108;-60
2021/07/29 06:35:28;;;;;;;16.10;5.25;;;25.00;99.90;;;;;;4239827;27;20043;-60
2021/07/29 06:37:30;;;;;;;18.55;5.93;;;24.90;99.90;;;;;;4240794;27;20039;-60
2021/07/29 06:39:31;;;;;;;13.50;5.10;;;25.10;99.90;;;;;;4239977;27;20043;-60
2021/07/29 06:41:32;;;;;;;16.17;8.60;;;25.20;99.90;;;;;;4239829;27;20023;-60
2021/07/29 06:43:34;;;;;;;13.82;6.13;;;25.10;99.90;;;;;;4240864;27;20431;-60
2021/07/29 06:45:35;;;;;;;12.40;5.45;;;25.20;99.90;;;;;;4239834;27;20107;-60
2021/07/29 06:47:36;;;;;;;8.65;4.95;;;25.10;99.90;;;;;;4241247;27;20027;-60
2021/07/29 06:49:37;;;;;;;9.63;4.88;;;25.60;99.90;;;;;;4238602;27;20111;-59
2021/07/29 06:51:38;;;;;;;11.00;5.20;;;26.00;99.90;;;;;;4240875;27;20630;-59
2021/07/29 06:53:39;;;;;;;16.50;6.95;;;26.00;99.90;;;;;;4239606;27;20134;-60
2021/07/29 06:55:40;;;;;;;11.23;5.57;;;26.10;99.90;;;;;;4240935;27;20080;-60
2021/07/29 06:57:41;;;;;;;15.48;5.65;;;26.10;99.90;;;;;;4238974;27;20512;-60
2021/07/29 06:59:44;;;;;;;10.15;5.60;;;26.20;99.90;;;;;;4240616;27;20251;-60
2021/07/29 07:01:45;;;;;;;15.63;6.85;;;26.00;99.90;;;;;;4239429;27;20444;-60
2021/07/29 07:03:48;;;;;;;12.38;6.40;;;25.90;99.90;;;;;;4240052;27;20072;-60
2021/07/29 07:05:49;;;;;;;15.75;6.47;;;25.70;99.90;;;;;;4239200;27;20034;-60
2021/07/29 07:07:50;;;;;;;9.88;5.05;;;25.60;99.90;;;;;;4240449;27;20038;-60
2021/07/29 07:09:51;;;;;;;9.20;5.60;;;25.60;99.90;;;;;;4239829;27;20034;-59
2021/07/29 07:11:52;;;;;;;14.50;6.18;;;25.30;99.90;;;;;;4239164;27;20702;-60
2021/07/29 07:13:53;;;;;;;15.40;5.88;;;25.30;99.90;;;;;;4240064;27;20039;-60
2021/07/29 07:15:54;;;;;;;11.27;5.78;;;25.10;99.90;;;;;;4240101;27;20813;-60
2021/07/29 07:17:56;;;;;;;15.05;6.15;;;25.10;99.90;;;;;;4240293;27;20063;-60
2021/07/29 07:20:00;;;;;;;12.23;5.63;;;25.10;99.90;;;;;;4238125;27;20073;-60
2021/07/29 07:22:02;;;;;;;11.00;5.85;;;25.30;99.90;;;;;;4240406;27;20064;-60
2021/07/29 07:24:05;;;;;;;13.32;6.05;;;25.50;99.90;;;;;;4239390;27;20072;-60
2021/07/29 07:26:14;;;;;;;12.25;5.57;;;25.50;99.90;;;;;;4240839;27;20083;-60
2021/07/29 07:28:15;;;;;;;15.35;5.30;;;25.40;99.90;;;;;;4239114;27;20931;-60
2021/07/29 07:30:16;;;;;;;12.35;5.60;;;25.40;99.90;;;;;;4239952;27;20031;-60
2021/07/29 07:32:18;;;;;;;15.13;6.30;;;25.30;99.90;;;;;;4239317;27;20043;-60
2021/07/29 07:34:19;;;;;;;10.98;5.65;;;25.20;99.90;;;;;;4240422;27;20019;-60
2021/07/29 07:36:21;;;;;;;14.65;5.80;;;25.10;99.90;;;;;;4238872;27;20443;-60
2021/07/29 07:38:25;;;;;;;19.30;6.70;;;25.10;99.90;;;;;;4240020;27;20092;-60
2021/07/29 07:40:27;;;;;;;9.55;5.75;;;24.90;99.90;;;;;;4238415;27;20095;-60
2021/07/29 07:42:28;;;;;;;9.48;5.63;;;24.90;99.90;;;;;;4239273;27;20490;-60
2021/07/29 07:44:29;;;;;;;15.35;6.25;;;24.80;99.90;;;;;;4239523;27;20031;-60
2021/07/29 07:46:30;;;;;;;13.70;5.88;;;24.80;99.90;;;;;;4239453;27;20035;-60
2021/07/29 07:48:31;;;;;;;12.05;6.03;;;24.80;99.90;;;;;;4239583;27;20046;-60
2021/07/29 07:50:32;;;;;;;21.88;7.53;;;24.70;99.90;;;;;;4238703;27;20038;-60
2021/07/29 07:52:34;;;;;;;18.90;6.53;;;24.60;99.90;;;;;;4239741;27;20047;-60
2021/07/29 07:54:36;;;;;;;10.43;6.43;;;24.60;99.90;;;;;;4238199;27;20443;-60
2021/07/29 07:56:44;;;;;;;11.40;6.50;;;24.50;99.90;;;;;;4239733;27;20031;-61
2021/07/29 07:58:46;;;;;;;14.68;6.35;;;24.50;99.90;;;;;;4238107;27;20825;-60
2021/07/29 08:00:47;;;;;;;18.75;7.50;;;24.50;99.90;;;;;;4232620;27;20043;-61
2021/07/29 08:02:48;;;;;;;15.35;6.45;;;24.50;99.90;;;;;;4248609;27;20031;-60
2021/07/29 08:04:49;;;;;;;12.32;6.50;;;24.50;99.90;;;;;;4238829;27;20094;-61
2021/07/29 08:06:50;;;;;;;14.48;6.88;;;24.40;99.90;;;;;;4238631;27;20084;-60
2021/07/29 08:08:51;;;;;;;14.20;6.47;;;24.50;99.90;;;;;;4239804;27;20495;-60
2021/07/29 08:10:53;;;;;;;18.73;7.18;;;24.50;99.90;;;;;;4236957;27;20039;-60
2021/07/29 08:12:54;;;;;;;7.97;6.03;;;24.40;99.90;;;;;;4238942;27;20103;-60
2021/07/29 08:14:55;;;;;;;12.43;7.25;;;24.50;99.90;;;;;;4238082;27;20107;-60
2021/07/29 08:16:56;;;;;;;12.95;6.55;;;24.60;99.90;;;;;;4239138;27;20027;-60
2021/07/29 08:18:57;;;;;;;12.15;6.85;;;24.70;99.90;;;;;;4239000;27;20122;-60
2021/07/29 08:20:59;;;;;;;23.05;7.60;;;24.80;99.90;;;;;;4238693;27;20112;-60
2021/07/29 08:23:00;;;;;;;13.45;6.70;;;24.80;99.90;;;;;;4239051;27;20035;-60
2021/07/29 08:25:01;;;;;;;12.65;6.18;;;25.00;99.90;;;;;;4238286;27;20155;-61
2021/07/29 08:27:03;;;;;;;8.65;5.95;;;25.20;99.90;;;;;;4239585;27;20031;-61
2021/07/29 08:29:04;;;;;;;12.95;6.30;;;25.50;99.90;;;;;;4237426;27;20456;-60
2021/07/29 08:31:06;;;;;;;14.45;6.68;;;25.70;99.90;;;;;;4238620;27;20107;-60
2021/07/29 08:33:12;;;;;;;12.63;6.50;;;25.90;99.90;;;;;;4238094;27;20047;-60
2021/07/29 08:35:14;;;;;;;16.52;6.95;;;26.10;99.90;;;;;;4239104;27;20399;-60
2021/07/29 08:37:15;;;;;;;15.20;6.57;;;26.30;99.90;;;;;;4237750;27;20035;-61
2021/07/29 08:39:16;;;;;;;18.25;6.22;;;26.40;99.90;;;;;;4239211;27;20023;-61
2021/07/29 08:41:18;;;;;;;11.07;6.72;;;26.50;99.90;;;;;;4238036;27;20031;-60
2021/07/29 08:43:20;;;;;;;11.93;6.05;;;26.50;99.90;;;;;;4239180;27;20618;-61
2021/07/29 08:45:21;;;;;;;9.15;6.30;;;26.60;99.90;;;;;;4237933;27;20084;-60
2021/07/29 08:47:26;;;;;;;11.57;5.55;;;26.70;99.90;;;;;;4237995;27;20097;-61
2021/07/29 08:49:27;;;;;;;10.75;5.97;;;26.90;99.90;;;;;;4237349;27;20031;-61
2021/07/29 08:51:29;;;;;;;14.93;6.40;;;27.10;99.90;;;;;;4238080;27;20039;-61
2021/07/29 08:53:30;;;;;;;17.73;6.30;;;27.10;99.90;;;;;;4247603;27;20059;-60
2021/07/29 08:55:31;;;;;;;15.00;6.57;;;27.20;99.90;;;;;;4256341;27;20046;-61
2021/07/29 08:57:33;;;;;;;14.35;6.70;;;27.30;99.90;;;;;;4238456;28;20039;-61
2021/07/29 08:59:37;;;;;;;13.07;5.78;;;27.40;99.90;;;;;;4256573;27;20039;-60
2021/07/29 09:01:53;;;;;;;13.20;6.50;;;27.40;99.90;;;;;;4257731;27;20087;-61
2021/07/29 09:04:10;;;;;;;14.07;5.85;;;27.40;99.90;;;;;;4256823;27;20749;-61
2021/07/29 09:06:13;;;;;;;14.45;6.15;;;27.40;99.90;;;;;;4260913;27;20039;-61
2021/07/29 09:08:14;;;;;;;11.25;5.72;;;27.40;99.90;;;;;;4258832;27;20114;-61
2021/07/29 09:10:24;;;;;;;16.20;6.43;;;27.40;99.90;;;;;;4261508;27;20873;-61
2021/07/29 09:12:25;;;;;;;14.90;6.68;;;27.40;99.90;;;;;;4260052;27;20064;-61
2021/07/29 09:14:26;;;;;;;11.63;7.07;;;27.60;99.90;;;;;;4260391;27;20808;-61
2021/07/29 09:16:28;;;;;;;20.65;7.47;;;27.60;99.90;;;;;;4259700;27;20015;-61
2021/07/29 09:18:36;;;;;;;12.38;6.32;;;27.70;99.90;;;;;;4261061;27;20071;-60
2021/07/29 09:20:37;;;;;;;13.23;6.75;;;27.80;99.90;;;;;;4259745;27;20038;-61
2021/07/29 09:22:38;;;;;;;18.77;7.75;;;27.80;99.90;;;;;;4261235;27;20023;-62
2021/07/29 09:25:02;;;;;;;15.55;7.22;;;27.70;99.90;;;;;;4259152;27;20092;-61
2021/07/29 09:27:04;;;;;;;21.85;7.95;;;27.70;99.90;;;;;;4261262;27;20079;-59
2021/07/29 09:29:20;;;;;;;14.38;6.07;;;27.60;99.90;;;;;;4259465;27;20478;-62
2021/07/29 09:31:23;;;;;;;14.10;6.60;;;27.70;99.90;;;;;;4260621;27;20023;-59
2021/07/29 09:33:24;;;;;;;18.73;7.03;;;27.80;99.90;;;;;;4241395;27;20051;-59
2021/07/29 09:35:28;;;;;;;12.73;7.30;;;27.80;99.90;;;;;;4260629;27;20026;-60
2021/07/29 09:37:29;;;;;;;16.60;6.82;;;27.80;99.90;;;;;;4259029;27;20145;-59
2021/07/29 09:39:30;;;;;;;11.82;7.57;;;27.80;99.90;;;;;;4260612;27;20027;-60
2021/07/29 09:41:31;;;;;;;12.40;6.25;;;28.00;99.90;;;;;;4259119;27;20741;-60
2021/07/29 09:43:35;;;;;;;16.42;6.97;;;28.00;99.90;;;;;;4259949;27;20026;-59
2021/07/29 09:45:37;;;;;;;12.00;5.72;;;28.10;99.90;;;;;;4259084;27;20148;-59
2021/07/29 09:47:38;;;;;;;15.02;6.35;;;28.20;99.90;;;;;;4260058;27;20031;-59
2021/07/29 09:49:41;;;;;;;16.67;7.05;;;28.40;99.90;;;;;;4258005;27;20064;-59
2021/07/29 09:51:42;;;;;;;13.57;7.57;;;28.50;99.90;;;;;;4259626;27;20023;-60
2021/07/29 09:53:46;;;;;;;14.63;6.07;;;28.50;99.90;;;;;;4259899;27;20079;-60
2021/07/29 09:55:47;;;;;;;17.63;6.45;;;28.60;99.90;;;;;;4258483;27;20068;-60
2021/07/29 09:57:48;;;;;;;16.15;7.53;;;28.70;99.90;;;;;;4259774;27;20084;-60
2021/07/29 09:59:49;;;;;;;12.55;6.25;;;28.90;99.90;;;;;;4258032;27;20080;-60
2021/07/29 10:01:51;;;;;;;17.92;7.70;;;28.90;99.90;;;;;;4259649;27;20542;-60
2021/07/29 10:03:52;;;;;;;11.68;6.32;;;28.90;99.90;;;;;;4259293;27;20030;-60
2021/07/29 10:05:58;;;;;;;17.10;7.00;;;28.90;99.90;;;;;;4260119;27;20075;-60
2021/07/29 10:08:02;;;;;;;14.23;7.70;;;29.00;99.90;;;;;;4258303;27;20772;-60
2021/07/29 10:10:04;;;;;;;15.07;7.07;;;29.10;99.90;;;;;;4260465;27;20031;-60
2021/07/29 10:12:07;;;;;;;12.32;6.07;;;29.20;99.90;;;;;;4258562;27;20031;-60
2021/07/29 10:14:11;;;;;;;10.95;5.82;;;29.30;99.90;;;;;;4259576;27;20043;-61
2021/07/29 10:16:17;;;;;;;12.57;5.43;;;29.30;99.90;;;;;;4257986;27;20154;-61
2021/07/29 10:18:18;;;;;;;18.45;6.55;;;29.30;99.90;;;;;;4260009;27;20030;-61
2021/07/29 10:20:20;;;;;;;15.98;6.63;;;29.30;99.90;;;;;;4258491;27;20075;-60
2021/07/29 10:22:22;;;;;;;16.40;6.25;;;29.40;99.90;;;;;;4259175;27;20091;-60
2021/07/29 10:24:23;;;;;;;11.38;6.40;;;29.40;99.90;;;;;;4259232;27;20022;-60
2021/07/29 10:26:26;;;;;;;12.27;6.18;;;29.40;99.90;;;;;;4259187;27;20078;-60
2021/07/29 10:28:31;;;;;;;15.30;7.03;;;29.50;99.90;;;;;;4258183;27;20535;-60